sensor_id;sensor_type;location;lat;lon;timestamp;temperature;humidity
35635;DHT22;21757;43.610;1.440;2023-02-22T00:00:50;12.10;99.90
35635;DHT22;21757;43.610;1.440;2023-02-22T00:03:27;12.10;99.90
35635;DHT22;21757;43.610;1.440;2023-02-22T00:05:55;12.10;99.90
35635;DHT22;21757;43.610;1.440;2023-02-22T00:08:24;12.10;99.90
35635;DHT22;21757;43.610;1.440;2023-02-22T00:10:58;12.10;99.90
35635;DHT22;21757;43.610;1.440;2023-02-22T00:13:24;12.10;99.90
35635;DHT22;21757;43.610;1.440;2023-02-22T00:15:50;12.10;99.90
35635;DHT22;21757;43.610;1.440;2023-02-22T00:18:17;12.10;99.90
35635;DHT22;21757;43.610;1.440;2023-02-22T00:20:44;12.00;99.90
35635;DHT22;21757;43.610;1.440;2023-02-22T00:23:16;12.00;99.90
35635;DHT22;21757;43.610;1.440;2023-02-22T00:25:44;11.90;99.90
35635;DHT22;21757;43.610;1.440;2023-02-22T00:28:10;11.90;99.90
35635;DHT22;21757;43.610;1.440;2023-02-22T00:30:35;11.90;99.90
35635;DHT22;21757;43.610;1.440;2023-02-22T00:33:01;11.90;99.90
35635;DHT22;21757;43.610;1.440;2023-02-22T00:35:29;11.90;99.90
35635;DHT22;21757;43.610;1.440;2023-02-22T00:38:00;11.90;99.90
35635;DHT22;21757;43.610;1.440;2023-02-22T00:40:29;11.90;99.90
35635;DHT22;21757;43.610;1.440;2023-02-22T00:42:56;11.90;99.90
35635;DHT22;21757;43.610;1.440;2023-02-22T00:45:23;11.90;99.90
35635;DHT22;21757;43.610;1.440;2023-02-22T00:47:50;11.90;99.90
35635;DHT22;21757;43.610;1.440;2023-02-22T00:50:17;11.90;99.90
35635;DHT22;21757;43.610;1.440;2023-02-22T00:52:43;11.90;99.90
35635;DHT22;21757;43.610;1.440;2023-02-22T00:55:14;12.00;99.90
35635;DHT22;21757;43.610;1.440;2023-02-22T00:57:40;12.00;99.90
35635;DHT22;21757;43.610;1.440;2023-02-22T01:00:08;12.00;99.90
35635;DHT22;21757;43.610;1.440;2023-02-22T01:02:38;12.00;99.90
35635;DHT22;21757;43.610;1.440;2023-02-22T01:05:08;12.00;99.90
35635;DHT22;21757;43.610;1.440;2023-02-22T01:07:34;12.00;99.90
35635;DHT22;21757;43.610;1.440;2023-02-22T01:10:01;11.90;99.90
35635;DHT22;21757;43.610;1.440;2023-02-22T01:12:28;11.90;99.90
35635;DHT22;21757;43.610;1.440;2023-02-22T01:14:54;11.90;99.90
35635;DHT22;21757;43.610;1.440;2023-02-22T01:17:24;11.90;99.90
35635;DHT22;21757;43.610;1.440;2023-02-22T01:19:53;11.90;99.90
35635;DHT22;21757;43.610;1.440;2023-02-22T01:22:20;11.90;99.90
35635;DHT22;21757;43.610;1.440;2023-02-22T01:24:49;11.80;99.90
35635;DHT22;21757;43.610;1.440;2023-02-22T01:27:17;11.80;99.90
35635;DHT22;21757;43.610;1.440;2023-02-22T01:29:43;11.80;99.90
35635;DHT22;21757;43.610;1.440;2023-02-22T01:32:09;11.80;99.90
35635;DHT22;21757;43.610;1.440;2023-02-22T01:34:36;11.80;99.90
35635;DHT22;21757;43.610;1.440;2023-02-22T01:37:02;11.70;99.90
35635;DHT22;21757;43.610;1.440;2023-02-22T01:39:28;11.70;99.90
35635;DHT22;21757;43.610;1.440;2023-02-22T01:41:54;11.70;99.90
35635;DHT22;21757;43.610;1.440;2023-02-22T01:44:30;11.70;99.90
35635;DHT22;21757;43.610;1.440;2023-02-22T01:46:58;11.70;99.90
35635;DHT22;21757;43.610;1.440;2023-02-22T01:49:28;11.70;99.90
35635;DHT22;21757;43.610;1.440;2023-02-22T01:51:56;11.70;99.90
35635;DHT22;21757;43.610;1.440;2023-02-22T01:54:29;11.70;99.90
35635;DHT22;21757;43.610;1.440;2023-02-22T01:57:11;11.70;99.90
35635;DHT22;21757;43.610;1.440;2023-02-22T01:59:43;11.70;99.90
35635;DHT22;21757;43.610;1.440;2023-02-22T02:02:11;11.70;99.90
35635;DHT22;21757;43.610;1.440;2023-02-22T02:04:38;11.70;99.90
35635;DHT22;21757;43.610;1.440;2023-02-22T02:07:07;11.70;99.90
35635;DHT22;21757;43.610;1.440;2023-02-22T02:09:39;11.70;99.90
35635;DHT22;21757;43.610;1.440;2023-02-22T02:12:09;11.70;99.90
35635;DHT22;21757;43.610;1.440;2023-02-22T02:14:35;11.70;99.90
35635;DHT22;21757;43.610;1.440;2023-02-22T02:17:07;11.80;99.90
35635;DHT22;21757;43.610;1.440;2023-02-22T02:30:38;11.70;99.90
35635;DHT22;21757;43.610;1.440;2023-02-22T02:33:19;11.70;99.90
35635;DHT22;21757;43.610;1.440;2023-02-22T02:36:06;11.70;99.90
35635;DHT22;21757;43.610;1.440;2023-02-22T02:38:49;11.60;99.90
35635;DHT22;21757;43.610;1.440;2023-02-22T02:41:20;11.60;99.90
35635;DHT22;21757;43.610;1.440;2023-02-22T02:43:53;11.60;99.90
35635;DHT22;21757;43.610;1.440;2023-02-22T02:46:26;11.60;99.90
35635;DHT22;21757;43.610;1.440;2023-02-22T02:49:06;11.60;99.90
35635;DHT22;21757;43.610;1.440;2023-02-22T02:51:39;11.60;99.90
35635;DHT22;21757;43.610;1.440;2023-02-22T02:54:07;11.60;99.90
35635;DHT22;21757;43.610;1.440;2023-02-22T02:56:33;11.60;99.90
35635;DHT22;21757;43.610;1.440;2023-02-22T02:58:59;11.70;99.90
35635;DHT22;21757;43.610;1.440;2023-02-22T03:01:48;11.70;99.90
35635;DHT22;21757;43.610;1.440;2023-02-22T03:07:26;11.70;99.90
35635;DHT22;21757;43.610;1.440;2023-02-22T03:10:07;11.60;99.90
35635;DHT22;21757;43.610;1.440;2023-02-22T03:12:43;11.60;99.90
35635;DHT22;21757;43.610;1.440;2023-02-22T03:18:07;11.50;99.90
35635;DHT22;21757;43.610;1.440;2023-02-22T03:23:08;11.30;99.90
35635;DHT22;21757;43.610;1.440;2023-02-22T03:25:42;11.20;99.90
35635;DHT22;21757;43.610;1.440;2023-02-22T03:28:14;11.20;99.90
35635;DHT22;21757;43.610;1.440;2023-02-22T03:30:51;11.10;99.90
35635;DHT22;21757;43.610;1.440;2023-02-22T03:33:31;11.10;99.90
35635;DHT22;21757;43.610;1.440;2023-02-22T03:36:02;11.10;99.90
35635;DHT22;21757;43.610;1.440;2023-02-22T03:38:31;11.10;99.90
35635;DHT22;21757;43.610;1.440;2023-02-22T03:41:00;11.00;99.90
35635;DHT22;21757;43.610;1.440;2023-02-22T03:43:35;11.00;99.90
35635;DHT22;21757;43.610;1.440;2023-02-22T03:46:02;11.00;99.90
35635;DHT22;21757;43.610;1.440;2023-02-22T03:51:06;10.90;99.90
35635;DHT22;21757;43.610;1.440;2023-02-22T03:53:33;11.00;99.90
35635;DHT22;21757;43.610;1.440;2023-02-22T03:56:08;11.00;99.90
35635;DHT22;21757;43.610;1.440;2023-02-22T03:58:38;11.00;99.90
35635;DHT22;21757;43.610;1.440;2023-02-22T04:01:04;10.90;99.90
35635;DHT22;21757;43.610;1.440;2023-02-22T04:03:30;10.90;99.90
35635;DHT22;21757;43.610;1.440;2023-02-22T04:05:56;11.00;99.90
35635;DHT22;21757;43.610;1.440;2023-02-22T04:08:21;11.00;99.90
35635;DHT22;21757;43.610;1.440;2023-02-22T04:10:47;11.00;99.90
35635;DHT22;21757;43.610;1.440;2023-02-22T04:13:13;11.10;99.90
35635;DHT22;21757;43.610;1.440;2023-02-22T04:15:39;11.10;99.90
35635;DHT22;21757;43.610;1.440;2023-02-22T04:18:05;11.10;99.90
35635;DHT22;21757;43.610;1.440;2023-02-22T04:20:31;11.10;99.90
35635;DHT22;21757;43.610;1.440;2023-02-22T04:22:57;11.20;99.90
35635;DHT22;21757;43.610;1.440;2023-02-22T04:25:23;11.20;99.90
35635;DHT22;21757;43.610;1.440;2023-02-22T04:27:49;11.20;99.90
35635;DHT22;21757;43.610;1.440;2023-02-22T04:30:17;11.20;99.90
35635;DHT22;21757;43.610;1.440;2023-02-22T04:32:44;11.30;99.90
35635;DHT22;21757;43.610;1.440;2023-02-22T04:35:10;11.30;99.90
35635;DHT22;21757;43.610;1.440;2023-02-22T04:37:35;11.30;99.90
35635;DHT22;21757;43.610;1.440;2023-02-22T04:40:02;11.30;99.90
35635;DHT22;21757;43.610;1.440;2023-02-22T04:42:33;11.30;99.90
35635;DHT22;21757;43.610;1.440;2023-02-22T04:44:58;11.30;99.90
35635;DHT22;21757;43.610;1.440;2023-02-22T04:47:24;11.40;99.90
35635;DHT22;21757;43.610;1.440;2023-02-22T04:49:50;11.50;99.90
35635;DHT22;21757;43.610;1.440;2023-02-22T04:52:15;11.40;99.90
35635;DHT22;21757;43.610;1.440;2023-02-22T04:54:41;11.40;99.90
35635;DHT22;21757;43.610;1.440;2023-02-22T04:57:07;11.40;99.90
35635;DHT22;21757;43.610;1.440;2023-02-22T04:59:33;11.40;99.90
35635;DHT22;21757;43.610;1.440;2023-02-22T05:01:58;11.40;99.90
35635;DHT22;21757;43.610;1.440;2023-02-22T05:04:25;11.40;99.90
35635;DHT22;21757;43.610;1.440;2023-02-22T05:06:51;11.40;99.90
35635;DHT22;21757;43.610;1.440;2023-02-22T05:09:18;11.40;99.90
35635;DHT22;21757;43.610;1.440;2023-02-22T05:11:43;11.40;99.90
35635;DHT22;21757;43.610;1.440;2023-02-22T05:14:11;11.30;99.90
35635;DHT22;21757;43.610;1.440;2023-02-22T05:16:37;11.30;99.90
35635;DHT22;21757;43.610;1.440;2023-02-22T05:19:03;11.20;99.90
35635;DHT22;21757;43.610;1.440;2023-02-22T05:21:28;11.20;99.90
35635;DHT22;21757;43.610;1.440;2023-02-22T05:23:54;11.20;99.90
35635;DHT22;21757;43.610;1.440;2023-02-22T05:26:20;11.20;99.90
35635;DHT22;21757;43.610;1.440;2023-02-22T05:28:45;11.30;99.90
35635;DHT22;21757;43.610;1.440;2023-02-22T05:31:11;11.30;99.90
35635;DHT22;21757;43.610;1.440;2023-02-22T05:33:37;11.30;99.90
35635;DHT22;21757;43.610;1.440;2023-02-22T05:36:04;11.20;99.90
35635;DHT22;21757;43.610;1.440;2023-02-22T05:38:30;11.30;99.90
35635;DHT22;21757;43.610;1.440;2023-02-22T05:40:55;11.30;99.90
35635;DHT22;21757;43.610;1.440;2023-02-22T05:43:21;11.20;99.90
35635;DHT22;21757;43.610;1.440;2023-02-22T05:45:47;11.20;99.90
35635;DHT22;21757;43.610;1.440;2023-02-22T05:48:12;11.20;99.90
35635;DHT22;21757;43.610;1.440;2023-02-22T05:50:38;11.10;99.90
35635;DHT22;21757;43.610;1.440;2023-02-22T05:53:05;11.10;99.90
35635;DHT22;21757;43.610;1.440;2023-02-22T05:55:30;11.00;99.90
35635;DHT22;21757;43.610;1.440;2023-02-22T05:57:56;10.90;99.90
35635;DHT22;21757;43.610;1.440;2023-02-22T06:00:25;10.90;99.90
35635;DHT22;21757;43.610;1.440;2023-02-22T06:03:03;10.90;99.90
35635;DHT22;21757;43.610;1.440;2023-02-22T06:05:29;11.00;99.90
35635;DHT22;21757;43.610;1.440;2023-02-22T06:07:56;11.00;99.90
35635;DHT22;21757;43.610;1.440;2023-02-22T06:10:22;11.00;99.90
35635;DHT22;21757;43.610;1.440;2023-02-22T06:12:49;11.00;99.90
35635;DHT22;21757;43.610;1.440;2023-02-22T06:15:16;11.00;99.90
35635;DHT22;21757;43.610;1.440;2023-02-22T06:17:42;11.00;99.90
35635;DHT22;21757;43.610;1.440;2023-02-22T06:20:10;11.00;99.90
35635;DHT22;21757;43.610;1.440;2023-02-22T06:22:36;11.10;99.90
35635;DHT22;21757;43.610;1.440;2023-02-22T06:25:03;11.00;99.90
35635;DHT22;21757;43.610;1.440;2023-02-22T06:27:30;11.00;99.90
35635;DHT22;21757;43.610;1.440;2023-02-22T06:29:58;11.00;99.90
35635;DHT22;21757;43.610;1.440;2023-02-22T06:32:24;11.00;99.90
35635;DHT22;21757;43.610;1.440;2023-02-22T06:34:50;11.10;99.90
35635;DHT22;21757;43.610;1.440;2023-02-22T06:37:15;11.10;99.90
35635;DHT22;21757;43.610;1.440;2023-02-22T06:39:41;11.10;99.90
35635;DHT22;21757;43.610;1.440;2023-02-22T06:42:07;11.10;99.90
35635;DHT22;21757;43.610;1.440;2023-02-22T06:44:33;11.10;99.90
35635;DHT22;21757;43.610;1.440;2023-02-22T06:46:58;11.10;99.90
35635;DHT22;21757;43.610;1.440;2023-02-22T06:49:25;11.10;99.90
35635;DHT22;21757;43.610;1.440;2023-02-22T06:51:54;11.10;99.90
35635;DHT22;21757;43.610;1.440;2023-02-22T06:54:21;11.10;99.90
35635;DHT22;21757;43.610;1.440;2023-02-22T06:56:46;11.10;99.90
35635;DHT22;21757;43.610;1.440;2023-02-22T06:59:14;11.10;99.90
35635;DHT22;21757;43.610;1.440;2023-02-22T07:01:40;11.10;99.90
35635;DHT22;21757;43.610;1.440;2023-02-22T07:04:06;11.10;99.90
35635;DHT22;21757;43.610;1.440;2023-02-22T07:06:32;11.10;99.90
35635;DHT22;21757;43.610;1.440;2023-02-22T07:08:58;11.00;99.90
35635;DHT22;21757;43.610;1.440;2023-02-22T07:11:23;11.10;99.90
35635;DHT22;21757;43.610;1.440;2023-02-22T07:13:49;11.20;99.90
35635;DHT22;21757;43.610;1.440;2023-02-22T07:16:15;11.20;99.90
35635;DHT22;21757;43.610;1.440;2023-02-22T07:18:40;11.30;99.90
35635;DHT22;21757;43.610;1.440;2023-02-22T07:21:06;11.30;99.90
35635;DHT22;21757;43.610;1.440;2023-02-22T07:23:32;11.30;99.90
35635;DHT22;21757;43.610;1.440;2023-02-22T07:26:02;11.30;99.90
35635;DHT22;21757;43.610;1.440;2023-02-22T07:28:29;11.20;99.90
35635;DHT22;21757;43.610;1.440;2023-02-22T07:30:55;11.30;99.90
35635;DHT22;21757;43.610;1.440;2023-02-22T07:33:21;11.30;99.90
35635;DHT22;21757;43.610;1.440;2023-02-22T07:35:49;11.30;99.90
35635;DHT22;21757;43.610;1.440;2023-02-22T07:38:16;11.40;99.90
35635;DHT22;21757;43.610;1.440;2023-02-22T07:40:43;11.40;99.90
35635;DHT22;21757;43.610;1.440;2023-02-22T07:43:20;11.40;99.90
35635;DHT22;21757;43.610;1.440;2023-02-22T07:45:48;11.50;99.90
35635;DHT22;21757;43.610;1.440;2023-02-22T07:48:14;11.60;99.90
35635;DHT22;21757;43.610;1.440;2023-02-22T07:50:41;11.50;99.90
35635;DHT22;21757;43.610;1.440;2023-02-22T07:53:26;11.50;99.90
35635;DHT22;21757;43.610;1.440;2023-02-22T07:55:55;11.60;99.90
35635;DHT22;21757;43.610;1.440;2023-02-22T07:58:23;11.50;99.90
35635;DHT22;21757;43.610;1.440;2023-02-22T08:00:48;11.60;99.90
35635;DHT22;21757;43.610;1.440;2023-02-22T08:03:17;11.60;99.90
35635;DHT22;21757;43.610;1.440;2023-02-22T08:05:50;11.70;99.90
35635;DHT22;21757;43.610;1.440;2023-02-22T08:08:17;11.70;99.90
35635;DHT22;21757;43.610;1.440;2023-02-22T08:10:43;11.70;99.90
35635;DHT22;21757;43.610;1.440;2023-02-22T08:13:09;11.70;99.90
35635;DHT22;21757;43.610;1.440;2023-02-22T08:15:37;11.70;99.90
35635;DHT22;21757;43.610;1.440;2023-02-22T08:18:08;11.70;99.90
35635;DHT22;21757;43.610;1.440;2023-02-22T08:20:35;11.80;99.90
35635;DHT22;21757;43.610;1.440;2023-02-22T08:23:02;11.80;99.90
35635;DHT22;21757;43.610;1.440;2023-02-22T08:25:29;11.80;99.90
35635;DHT22;21757;43.610;1.440;2023-02-22T08:28:03;11.80;99.90
35635;DHT22;21757;43.610;1.440;2023-02-22T08:30:31;11.90;99.90
35635;DHT22;21757;43.610;1.440;2023-02-22T08:32:57;11.90;99.90
35635;DHT22;21757;43.610;1.440;2023-02-22T08:35:23;11.80;99.90
35635;DHT22;21757;43.610;1.440;2023-02-22T08:37:52;11.80;99.90
35635;DHT22;21757;43.610;1.440;2023-02-22T08:40:20;11.80;99.90
35635;DHT22;21757;43.610;1.440;2023-02-22T08:42:46;12.00;99.90
35635;DHT22;21757;43.610;1.440;2023-02-22T08:45:12;12.00;99.90
35635;DHT22;21757;43.610;1.440;2023-02-22T08:47:39;12.20;99.90
35635;DHT22;21757;43.610;1.440;2023-02-22T08:50:05;12.20;99.90
35635;DHT22;21757;43.610;1.440;2023-02-22T08:52:31;12.20;99.90
35635;DHT22;21757;43.610;1.440;2023-02-22T08:54:57;12.30;99.90
35635;DHT22;21757;43.610;1.440;2023-02-22T08:57:23;12.20;99.90
35635;DHT22;21757;43.610;1.440;2023-02-22T08:59:48;12.20;99.90
35635;DHT22;21757;43.610;1.440;2023-02-22T09:02:16;12.10;99.90
35635;DHT22;21757;43.610;1.440;2023-02-22T09:04:42;12.00;99.90
35635;DHT22;21757;43.610;1.440;2023-02-22T09:07:08;12.00;99.90
35635;DHT22;21757;43.610;1.440;2023-02-22T09:09:34;12.00;99.90
35635;DHT22;21757;43.610;1.440;2023-02-22T09:12:00;12.00;99.90
35635;DHT22;21757;43.610;1.440;2023-02-22T09:14:26;12.00;99.90
35635;DHT22;21757;43.610;1.440;2023-02-22T09:16:52;12.00;99.90
35635;DHT22;21757;43.610;1.440;2023-02-22T09:19:17;12.00;99.90
35635;DHT22;21757;43.610;1.440;2023-02-22T09:21:43;12.00;99.90
35635;DHT22;21757;43.610;1.440;2023-02-22T09:24:09;12.10;99.90
35635;DHT22;21757;43.610;1.440;2023-02-22T09:26:36;12.10;99.90
35635;DHT22;21757;43.610;1.440;2023-02-22T09:29:05;12.10;99.90
35635;DHT22;21757;43.610;1.440;2023-02-22T09:31:38;12.10;99.90
35635;DHT22;21757;43.610;1.440;2023-02-22T09:34:06;12.10;99.90
35635;DHT22;21757;43.610;1.440;2023-02-22T09:36:45;12.10;99.90
35635;DHT22;21757;43.610;1.440;2023-02-22T09:39:11;12.10;99.90
35635;DHT22;21757;43.610;1.440;2023-02-22T09:47:01;12.00;99.90
35635;DHT22;21757;43.610;1.440;2023-02-22T09:49:36;12.10;99.90
35635;DHT22;21757;43.610;1.440;2023-02-22T09:54:51;12.10;99.90
35635;DHT22;21757;43.610;1.440;2023-02-22T09:57:24;12.10;99.90
35635;DHT22;21757;43.610;1.440;2023-02-22T10:02:32;12.20;99.90
35635;DHT22;21757;43.610;1.440;2023-02-22T10:04:59;12.20;99.90
35635;DHT22;21757;43.610;1.440;2023-02-22T10:10:29;12.30;99.90
35635;DHT22;21757;43.610;1.440;2023-02-22T10:26:44;12.70;99.90
35635;DHT22;21757;43.610;1.440;2023-02-22T10:31:41;12.90;99.90
35635;DHT22;21757;43.610;1.440;2023-02-22T10:34:23;12.90;99.90
35635;DHT22;21757;43.610;1.440;2023-02-22T10:36:54;13.00;99.90
35635;DHT22;21757;43.610;1.440;2023-02-22T10:39:31;13.10;99.90
35635;DHT22;21757;43.610;1.440;2023-02-22T10:42:03;13.20;99.90
35635;DHT22;21757;43.610;1.440;2023-02-22T10:44:37;13.30;99.90
35635;DHT22;21757;43.610;1.440;2023-02-22T10:47:14;13.30;99.90
35635;DHT22;21757;43.610;1.440;2023-02-22T10:49:43;13.30;99.90
35635;DHT22;21757;43.610;1.440;2023-02-22T10:52:16;13.60;99.90
35635;DHT22;21757;43.610;1.440;2023-02-22T10:54:45;13.90;99.90
35635;DHT22;21757;43.610;1.440;2023-02-22T10:57:12;14.10;99.90
35635;DHT22;21757;43.610;1.440;2023-02-22T10:59:40;14.20;99.90
35635;DHT22;21757;43.610;1.440;2023-02-22T11:02:31;14.30;99.90
35635;DHT22;21757;43.610;1.440;2023-02-22T11:04:59;14.10;99.90
35635;DHT22;21757;43.610;1.440;2023-02-22T11:07:35;13.90;99.90
35635;DHT22;21757;43.610;1.440;2023-02-22T11:10:05;13.80;99.90
35635;DHT22;21757;43.610;1.440;2023-02-22T11:12:35;13.60;99.90
35635;DHT22;21757;43.610;1.440;2023-02-22T11:17:42;13.60;99.90
35635;DHT22;21757;43.610;1.440;2023-02-22T11:20:20;13.60;99.90
35635;DHT22;21757;43.610;1.440;2023-02-22T11:22:54;13.50;99.90
35635;DHT22;21757;43.610;1.440;2023-02-22T11:25:29;13.60;99.90
35635;DHT22;21757;43.610;1.440;2023-02-22T11:28:11;13.60;99.90
35635;DHT22;21757;43.610;1.440;2023-02-22T11:30:43;13.70;99.90
35635;DHT22;21757;43.610;1.440;2023-02-22T11:33:20;13.80;99.90
35635;DHT22;21757;43.610;1.440;2023-02-22T11:35:52;14.20;99.90
35635;DHT22;21757;43.610;1.440;2023-02-22T11:38:22;14.40;99.90
35635;DHT22;21757;43.610;1.440;2023-02-22T11:41:15;14.50;99.90
35635;DHT22;21757;43.610;1.440;2023-02-22T11:43:46;14.80;99.90
35635;DHT22;21757;43.610;1.440;2023-02-22T11:46:16;14.70;99.90
35635;DHT22;21757;43.610;1.440;2023-02-22T11:56:44;13.90;99.90
35635;DHT22;21757;43.610;1.440;2023-02-22T11:59:24;14.30;99.90
35635;DHT22;21757;43.610;1.440;2023-02-22T12:13:22;15.10;99.90
35635;DHT22;21757;43.610;1.440;2023-02-22T12:18:25;14.80;99.90
35635;DHT22;21757;43.610;1.440;2023-02-22T12:20:56;14.70;99.90
35635;DHT22;21757;43.610;1.440;2023-02-22T12:23:42;14.50;99.90
35635;DHT22;21757;43.610;1.440;2023-02-22T12:26:16;14.40;99.90
35635;DHT22;21757;43.610;1.440;2023-02-22T12:31:51;14.10;99.90
35635;DHT22;21757;43.610;1.440;2023-02-22T12:34:46;14.10;99.90
35635;DHT22;21757;43.610;1.440;2023-02-22T12:37:37;14.10;99.90
35635;DHT22;21757;43.610;1.440;2023-02-22T12:42:57;14.30;99.90
35635;DHT22;21757;43.610;1.440;2023-02-22T12:51:18;14.30;99.90
35635;DHT22;21757;43.610;1.440;2023-02-22T12:53:58;14.40;99.90
35635;DHT22;21757;43.610;1.440;2023-02-22T12:56:48;14.40;99.90
35635;DHT22;21757;43.610;1.440;2023-02-22T12:59:25;14.50;99.90
35635;DHT22;21757;43.610;1.440;2023-02-22T13:02:02;14.40;99.90
35635;DHT22;21757;43.610;1.440;2023-02-22T13:04:28;14.30;99.90
35635;DHT22;21757;43.610;1.440;2023-02-22T13:15:42;14.10;99.90
35635;DHT22;21757;43.610;1.440;2023-02-22T13:21:14;14.20;99.90
35635;DHT22;21757;43.610;1.440;2023-02-22T13:28:49;14.60;99.90
35635;DHT22;21757;43.610;1.440;2023-02-22T13:34:14;15.30;99.90
35635;DHT22;21757;43.610;1.440;2023-02-22T13:50:33;15.30;99.90
35635;DHT22;21757;43.610;1.440;2023-02-22T13:53:06;15.50;99.90
35635;DHT22;21757;43.610;1.440;2023-02-22T13:55:37;15.70;99.90
35635;DHT22;21757;43.610;1.440;2023-02-22T13:58:06;15.70;99.90
35635;DHT22;21757;43.610;1.440;2023-02-22T14:00:56;15.80;99.90
35635;DHT22;21757;43.610;1.440;2023-02-22T14:06:10;15.80;99.90
35635;DHT22;21757;43.610;1.440;2023-02-22T14:08:51;15.70;99.90
35635;DHT22;21757;43.610;1.440;2023-02-22T14:16:24;15.40;99.90
35635;DHT22;21757;43.610;1.440;2023-02-22T14:19:12;15.50;99.90
35635;DHT22;21757;43.610;1.440;2023-02-22T14:21:59;15.60;99.90
35635;DHT22;21757;43.610;1.440;2023-02-22T14:24:48;15.70;99.90
35635;DHT22;21757;43.610;1.440;2023-02-22T14:27:16;15.60;99.90
35635;DHT22;21757;43.610;1.440;2023-02-22T14:29:55;15.60;99.90
35635;DHT22;21757;43.610;1.440;2023-02-22T14:32:30;15.50;99.90
35635;DHT22;21757;43.610;1.440;2023-02-22T14:35:19;15.70;99.90
35635;DHT22;21757;43.610;1.440;2023-02-22T14:37:50;15.80;99.90
35635;DHT22;21757;43.610;1.440;2023-02-22T14:40:24;15.70;99.90
35635;DHT22;21757;43.610;1.440;2023-02-22T14:43:01;15.70;99.90
35635;DHT22;21757;43.610;1.440;2023-02-22T14:45:33;15.70;99.90
35635;DHT22;21757;43.610;1.440;2023-02-22T14:55:51;15.40;99.90
35635;DHT22;21757;43.610;1.440;2023-02-22T14:58:21;15.20;99.90
35635;DHT22;21757;43.610;1.440;2023-02-22T15:00:52;15.00;99.90
35635;DHT22;21757;43.610;1.440;2023-02-22T15:03:26;15.00;99.90
35635;DHT22;21757;43.610;1.440;2023-02-22T15:06:19;15.00;99.90
35635;DHT22;21757;43.610;1.440;2023-02-22T15:08:47;14.90;99.90
35635;DHT22;21757;43.610;1.440;2023-02-22T15:11:25;14.80;99.90
35635;DHT22;21757;43.610;1.440;2023-02-22T15:13:55;14.80;99.90
35635;DHT22;21757;43.610;1.440;2023-02-22T15:16:27;14.80;99.90
35635;DHT22;21757;43.610;1.440;2023-02-22T15:18:56;14.80;99.90
35635;DHT22;21757;43.610;1.440;2023-02-22T15:21:25;14.70;99.90
35635;DHT22;21757;43.610;1.440;2023-02-22T15:23:55;14.70;99.90
35635;DHT22;21757;43.610;1.440;2023-02-22T15:29:09;14.60;99.90
35635;DHT22;21757;43.610;1.440;2023-02-22T15:31:38;14.50;99.90
35635;DHT22;21757;43.610;1.440;2023-02-22T15:34:31;14.60;99.90
35635;DHT22;21757;43.610;1.440;2023-02-22T15:37:13;14.50;99.90
35635;DHT22;21757;43.610;1.440;2023-02-22T15:39:44;14.50;99.90
35635;DHT22;21757;43.610;1.440;2023-02-22T15:42:15;14.50;99.90
35635;DHT22;21757;43.610;1.440;2023-02-22T15:44:51;14.50;99.90
35635;DHT22;21757;43.610;1.440;2023-02-22T15:47:28;14.00;99.90
35635;DHT22;21757;43.610;1.440;2023-02-22T15:52:58;13.40;99.90
35635;DHT22;21757;43.610;1.440;2023-02-22T15:55:28;13.50;99.90
35635;DHT22;21757;43.610;1.440;2023-02-22T16:00:44;12.80;99.90
35635;DHT22;21757;43.610;1.440;2023-02-22T16:03:12;12.90;99.90
35635;DHT22;21757;43.610;1.440;2023-02-22T16:05:47;12.60;1.00
35635;DHT22;21757;43.610;1.440;2023-02-22T16:08:21;12.60;1.00
35635;DHT22;21757;43.610;1.440;2023-02-22T16:11:07;12.50;1.00
35635;DHT22;21757;43.610;1.440;2023-02-22T16:13:41;12.40;1.00
35635;DHT22;21757;43.610;1.440;2023-02-22T16:18:42;12.30;1.00
35635;DHT22;21757;43.610;1.440;2023-02-22T16:21:13;12.30;1.00
35635;DHT22;21757;43.610;1.440;2023-02-22T16:23:44;12.30;1.00
35635;DHT22;21757;43.610;1.440;2023-02-22T16:26:33;12.40;1.00
35635;DHT22;21757;43.610;1.440;2023-02-22T16:29:00;12.30;1.00
35635;DHT22;21757;43.610;1.440;2023-02-22T16:31:31;12.40;1.00
35635;DHT22;21757;43.610;1.440;2023-02-22T16:34:02;12.40;99.90
35635;DHT22;21757;43.610;1.440;2023-02-22T16:36:48;12.50;99.90
35635;DHT22;21757;43.610;1.440;2023-02-22T16:39:27;12.60;99.90
35635;DHT22;21757;43.610;1.440;2023-02-22T16:42:03;12.70;99.90
35635;DHT22;21757;43.610;1.440;2023-02-22T16:44:29;12.80;99.90
35635;DHT22;21757;43.610;1.440;2023-02-22T16:46:58;12.80;99.90
35635;DHT22;21757;43.610;1.440;2023-02-22T16:49:24;12.70;99.90
35635;DHT22;21757;43.610;1.440;2023-02-22T16:51:54;12.70;99.90
35635;DHT22;21757;43.610;1.440;2023-02-22T16:54:33;12.70;99.90
35635;DHT22;21757;43.610;1.440;2023-02-22T16:57:02;12.70;99.90
35635;DHT22;21757;43.610;1.440;2023-02-22T16:59:36;12.70;99.90
35635;DHT22;21757;43.610;1.440;2023-02-22T17:02:03;12.70;99.90
35635;DHT22;21757;43.610;1.440;2023-02-22T17:04:32;12.60;99.90
35635;DHT22;21757;43.610;1.440;2023-02-22T17:06:59;12.60;99.90
35635;DHT22;21757;43.610;1.440;2023-02-22T17:09:27;12.60;99.90
35635;DHT22;21757;43.610;1.440;2023-02-22T17:11:53;12.60;99.90
35635;DHT22;21757;43.610;1.440;2023-02-22T17:14:22;12.70;99.90
35635;DHT22;21757;43.610;1.440;2023-02-22T17:16:50;12.60;99.90
35635;DHT22;21757;43.610;1.440;2023-02-22T17:19:19;12.60;99.90
35635;DHT22;21757;43.610;1.440;2023-02-22T17:21:45;12.60;99.90
35635;DHT22;21757;43.610;1.440;2023-02-22T17:24:11;12.60;99.90
35635;DHT22;21757;43.610;1.440;2023-02-22T17:26:38;12.60;99.90
35635;DHT22;21757;43.610;1.440;2023-02-22T17:29:04;12.60;99.90
35635;DHT22;21757;43.610;1.440;2023-02-22T17:31:30;12.60;99.90
35635;DHT22;21757;43.610;1.440;2023-02-22T17:34:02;12.60;99.90
35635;DHT22;21757;43.610;1.440;2023-02-22T17:36:29;12.60;99.90
35635;DHT22;21757;43.610;1.440;2023-02-22T17:38:55;12.70;99.90
35635;DHT22;21757;43.610;1.440;2023-02-22T17:41:21;12.60;99.90
35635;DHT22;21757;43.610;1.440;2023-02-22T17:43:46;12.60;99.90
35635;DHT22;21757;43.610;1.440;2023-02-22T17:46:12;12.60;99.90
35635;DHT22;21757;43.610;1.440;2023-02-22T17:48:38;12.70;99.90
35635;DHT22;21757;43.610;1.440;2023-02-22T17:51:08;12.70;99.90
35635;DHT22;21757;43.610;1.440;2023-02-22T17:53:35;12.70;99.90
35635;DHT22;21757;43.610;1.440;2023-02-22T17:56:10;12.70;99.90
35635;DHT22;21757;43.610;1.440;2023-02-22T17:58:39;12.70;99.90
35635;DHT22;21757;43.610;1.440;2023-02-22T18:01:05;12.70;99.90
35635;DHT22;21757;43.610;1.440;2023-02-22T18:03:32;12.70;99.90
35635;DHT22;21757;43.610;1.440;2023-02-22T18:05:59;12.70;99.90
35635;DHT22;21757;43.610;1.440;2023-02-22T18:08:27;12.70;99.90
35635;DHT22;21757;43.610;1.440;2023-02-22T18:10:54;12.70;99.90
35635;DHT22;21757;43.610;1.440;2023-02-22T18:13:25;12.70;99.90
35635;DHT22;21757;43.610;1.440;2023-02-22T18:15:51;12.70;99.90
35635;DHT22;21757;43.610;1.440;2023-02-22T18:18:17;12.70;99.90